sensor_id;sensor_type;location;lat;lon;timestamp;pressure;altitude;pressure_sealevel;temperature;humidity
47753;BME280;2038;51.728;6.674;2023-02-12T00:01:16;103112.03;;;9.19;100.00
47753;BME280;2038;51.728;6.674;2023-02-12T00:03:45;103115.78;;;9.23;100.00
47753;BME280;2038;51.728;6.674;2023-02-12T00:06:11;103111.22;;;9.27;100.00
47753;BME280;2038;51.728;6.674;2023-02-12T00:08:38;103117.28;;;9.21;100.00
47753;BME280;2038;51.728;6.674;2023-02-12T00:11:07;103111.09;;;9.19;100.00
47753;BME280;2038;51.728;6.674;2023-02-12T00:13:34;103112.03;;;9.19;100.00
47753;BME280;2038;51.728;6.674;2023-02-12T00:16:07;103111.69;;;9.16;100.00
47753;BME280;2038;51.728;6.674;2023-02-12T00:18:34;103109.38;;;9.11;100.00
47753;BME280;2038;51.728;6.674;2023-02-12T00:21:01;103121.03;;;9.09;100.00
47753;BME280;2038;51.728;6.674;2023-02-12T00:23:28;103119.81;;;9.05;100.00
47753;BME280;2038;51.728;6.674;2023-02-12T00:25:55;103123.47;;;9.00;100.00
47753;BME280;2038;51.728;6.674;2023-02-12T00:28:21;103123.34;;;8.99;100.00
47753;BME280;2038;51.728;6.674;2023-02-12T00:30:47;103123.16;;;8.97;100.00
47753;BME280;2038;51.728;6.674;2023-02-12T00:33:14;103132.59;;;8.98;100.00
47753;BME280;2038;51.728;6.674;2023-02-12T00:35:40;103125.00;;;8.91;100.00
47753;BME280;2038;51.728;6.674;2023-02-12T00:38:06;103124.78;;;8.97;100.00
47753;BME280;2038;51.728;6.674;2023-02-12T00:40:33;103126.75;;;8.99;100.00
47753;BME280;2038;51.728;6.674;2023-02-12T00:42:59;103121.84;;;9.01;100.00
47753;BME280;2038;51.728;6.674;2023-02-12T00:45:25;103126.28;;;8.95;100.00
47753;BME280;2038;51.728;6.674;2023-02-12T00:47:51;103120.84;;;8.91;100.00
47753;BME280;2038;51.728;6.674;2023-02-12T00:50:17;103121.75;;;8.92;100.00
47753;BME280;2038;51.728;6.674;2023-02-12T00:52:44;103118.69;;;8.87;100.00
47753;BME280;2038;51.728;6.674;2023-02-12T00:55:10;103121.22;;;8.87;100.00
47753;BME280;2038;51.728;6.674;2023-02-12T00:57:36;103122.13;;;8.88;100.00
47753;BME280;2038;51.728;6.674;2023-02-12T01:00:03;103124.88;;;8.89;100.00
47753;BME280;2038;51.728;6.674;2023-02-12T01:02:30;103118.88;;;8.89;100.00
47753;BME280;2038;51.728;6.674;2023-02-12T01:04:56;103111.56;;;8.92;100.00
47753;BME280;2038;51.728;6.674;2023-02-12T01:07:23;103112.97;;;8.97;100.00
47753;BME280;2038;51.728;6.674;2023-02-12T01:09:50;103113.88;;;8.98;100.00
47753;BME280;2038;51.728;6.674;2023-02-12T01:12:16;103107.91;;;8.97;100.00
47753;BME280;2038;51.728;6.674;2023-02-12T01:14:42;103110.13;;;8.94;100.00
47753;BME280;2038;51.728;6.674;2023-02-12T01:17:08;103106.66;;;8.93;100.00
47753;BME280;2038;51.728;6.674;2023-02-12T01:19:35;103116.56;;;8.99;100.00
47753;BME280;2038;51.728;6.674;2023-02-12T01:22:01;103107.91;;;8.97;100.00
47753;BME280;2038;51.728;6.674;2023-02-12T01:24:27;103114.44;;;8.95;100.00
47753;BME280;2038;51.728;6.674;2023-02-12T01:26:53;103109.53;;;8.97;100.00
47753;BME280;2038;51.728;6.674;2023-02-12T01:29:19;103112.97;;;8.97;100.00
47753;BME280;2038;51.728;6.674;2023-02-12T01:31:45;103114.63;;;8.97;100.00
47753;BME280;2038;51.728;6.674;2023-02-12T01:34:12;103115.19;;;8.94;100.00
47753;BME280;2038;51.728;6.674;2023-02-12T01:36:39;103112.47;;;8.92;100.00
47753;BME280;2038;51.728;6.674;2023-02-12T01:39:05;103096.31;;;8.92;100.00
47753;BME280;2038;51.728;6.674;2023-02-12T01:41:39;103096.81;;;8.97;100.00
47753;BME280;2038;51.728;6.674;2023-02-12T01:44:14;103102.63;;;8.96;100.00
47753;BME280;2038;51.728;6.674;2023-02-12T01:46:47;103100.44;;;8.99;100.00
47753;BME280;2038;51.728;6.674;2023-02-12T01:49:21;103099.03;;;8.93;100.00
47753;BME280;2038;51.728;6.674;2023-02-12T01:52:08;103099.97;;;8.87;100.00
47753;BME280;2038;51.728;6.674;2023-02-12T01:54:41;103096.56;;;8.86;100.00
47753;BME280;2038;51.728;6.674;2023-02-12T01:57:09;103103.03;;;8.91;100.00
47753;BME280;2038;51.728;6.674;2023-02-12T01:59:40;103098.72;;;8.90;100.00
47753;BME280;2038;51.728;6.674;2023-02-12T02:02:10;103099.25;;;8.88;100.00
47753;BME280;2038;51.728;6.674;2023-02-12T02:04:41;103097.63;;;8.88;100.00
47753;BME280;2038;51.728;6.674;2023-02-12T02:07:10;103092.75;;;8.83;100.00
47753;BME280;2038;51.728;6.674;2023-02-12T02:09:38;103093.16;;;8.79;100.00
47753;BME280;2038;51.728;6.674;2023-02-12T02:12:06;103097.38;;;8.78;100.00
47753;BME280;2038;51.728;6.674;2023-02-12T02:14:54;103097.38;;;8.78;100.00
47753;BME280;2038;51.728;6.674;2023-02-12T02:17:46;103092.81;;;8.76;100.00
47753;BME280;2038;51.728;6.674;2023-02-12T02:20:48;103104.09;;;8.78;100.00
47753;BME280;2038;51.728;6.674;2023-02-12T02:23:55;103098.81;;;8.76;100.00
47753;BME280;2038;51.728;6.674;2023-02-12T02:33:16;103079.38;;;8.77;100.00
47753;BME280;2038;51.728;6.674;2023-02-12T02:38:44;103087.53;;;8.81;100.00
47753;BME280;2038;51.728;6.674;2023-02-12T02:43:54;103076.03;;;8.85;100.00
47753;BME280;2038;51.728;6.674;2023-02-12T02:46:29;103080.94;;;8.83;100.00
47753;BME280;2038;51.728;6.674;2023-02-12T02:49:06;103075.34;;;8.79;100.00
47753;BME280;2038;51.728;6.674;2023-02-12T02:51:40;103082.44;;;8.81;100.00
47753;BME280;2038;51.728;6.674;2023-02-12T02:54:27;103075.63;;;8.89;100.00
47753;BME280;2038;51.728;6.674;2023-02-12T02:57:06;103077.03;;;8.78;100.00
47753;BME280;2038;51.728;6.674;2023-02-12T02:59:44;103077.41;;;8.74;100.00
47753;BME280;2038;51.728;6.674;2023-02-12T03:02:28;103076.16;;;8.71;100.00
47753;BME280;2038;51.728;6.674;2023-02-12T03:05:05;103085.25;;;8.69;100.00
47753;BME280;2038;51.728;6.674;2023-02-12T03:07:43;103084.94;;;8.66;100.00
47753;BME280;2038;51.728;6.674;2023-02-12T03:11:00;103082.78;;;8.62;100.00
47753;BME280;2038;51.728;6.674;2023-02-12T03:16:02;103079.50;;;8.63;100.00
47753;BME280;2038;51.728;6.674;2023-02-12T03:18:51;103083.91;;;8.57;100.00
47753;BME280;2038;51.728;6.674;2023-02-12T03:21:49;103078.38;;;8.68;100.00
47753;BME280;2038;51.728;6.674;2023-02-12T03:24:31;103073.22;;;8.75;100.00
47753;BME280;2038;51.728;6.674;2023-02-12T03:29:41;103081.41;;;8.72;100.00
47753;BME280;2038;51.728;6.674;2023-02-12T03:40:32;103082.78;;;8.62;100.00
47753;BME280;2038;51.728;6.674;2023-02-12T03:43:18;103086.53;;;8.50;100.00
47753;BME280;2038;51.728;6.674;2023-02-12T03:53:35;103091.03;;;8.52;100.00
47753;BME280;2038;51.728;6.674;2023-02-12T03:56:11;103085.63;;;8.49;100.00
47753;BME280;2038;51.728;6.674;2023-02-12T03:58:41;103097.50;;;8.80;100.00
47753;BME280;2038;51.728;6.674;2023-02-12T04:01:10;103092.75;;;8.83;100.00
47753;BME280;2038;51.728;6.674;2023-02-12T04:03:39;103098.34;;;8.87;100.00
47753;BME280;2038;51.728;6.674;2023-02-12T04:08:48;103099.03;;;8.48;100.00
47753;BME280;2038;51.728;6.674;2023-02-12T04:17:49;103103.91;;;8.54;100.00
47753;BME280;2038;51.728;6.674;2023-02-12T04:29:41;103111.56;;;8.46;100.00
47753;BME280;2038;51.728;6.674;2023-02-12T04:32:30;103116.84;;;8.48;100.00
47753;BME280;2038;51.728;6.674;2023-02-12T04:38:13;103121.50;;;8.75;100.00
47753;BME280;2038;51.728;6.674;2023-02-12T04:40:47;103125.16;;;8.77;100.00
47753;BME280;2038;51.728;6.674;2023-02-12T04:43:14;103124.81;;;8.74;100.00
47753;BME280;2038;51.728;6.674;2023-02-12T04:45:51;103127.13;;;8.79;100.00
47753;BME280;2038;51.728;6.674;2023-02-12T04:48:17;103123.63;;;8.86;100.00
47753;BME280;2038;51.728;6.674;2023-02-12T04:50:43;103126.41;;;8.58;100.00
47753;BME280;2038;51.728;6.674;2023-02-12T04:53:11;103123.66;;;8.56;100.00
47753;BME280;2038;51.728;6.674;2023-02-12T04:55:37;103131.69;;;8.52;100.00
47753;BME280;2038;51.728;6.674;2023-02-12T04:58:04;103129.34;;;8.46;100.00
47753;BME280;2038;51.728;6.674;2023-02-12T05:00:31;103130.06;;;8.53;100.00
47753;BME280;2038;51.728;6.674;2023-02-12T05:02:58;103134.81;;;8.50;100.00
47753;BME280;2038;51.728;6.674;2023-02-12T05:05:24;103133.72;;;8.48;100.00
47753;BME280;2038;51.728;6.674;2023-02-12T05:07:50;103139.19;;;8.43;100.00
47753;BME280;2038;51.728;6.674;2023-02-12T05:10:17;103137.56;;;8.44;100.00
47753;BME280;2038;51.728;6.674;2023-02-12T05:12:44;103136.66;;;8.43;100.00
47753;BME280;2038;51.728;6.674;2023-02-12T05:15:10;103140.09;;;8.44;100.00
47753;BME280;2038;51.728;6.674;2023-02-12T05:17:36;103145.91;;;8.43;100.00
47753;BME280;2038;51.728;6.674;2023-02-12T05:20:04;103141.56;;;8.42;100.00
47753;BME280;2038;51.728;6.674;2023-02-12T05:22:30;103135.41;;;8.40;100.00
47753;BME280;2038;51.728;6.674;2023-02-12T05:24:57;103141.06;;;8.37;100.00
47753;BME280;2038;51.728;6.674;2023-02-12T05:27:23;103139.81;;;8.34;100.00
47753;BME280;2038;51.728;6.674;2023-02-12T05:29:49;103137.44;;;8.35;100.00
47753;BME280;2038;51.728;6.674;2023-02-12T05:32:15;103140.53;;;8.33;100.00
47753;BME280;2038;51.728;6.674;2023-02-12T05:34:41;103136.53;;;8.35;100.00
47753;BME280;2038;51.728;6.674;2023-02-12T05:37:07;103143.25;;;8.34;100.00
47753;BME280;2038;51.728;6.674;2023-02-12T05:39:34;103151.03;;;8.36;100.00
47753;BME280;2038;51.728;6.674;2023-02-12T05:42:00;103147.19;;;8.39;100.00
47753;BME280;2038;51.728;6.674;2023-02-12T05:44:26;103148.50;;;8.36;100.00
47753;BME280;2038;51.728;6.674;2023-02-12T05:46:52;103151.75;;;8.65;100.00
47753;BME280;2038;51.728;6.674;2023-02-12T05:49:18;103147.72;;;8.67;100.00
47753;BME280;2038;51.728;6.674;2023-02-12T05:51:45;103145.13;;;8.51;100.00
47753;BME280;2038;51.728;6.674;2023-02-12T05:54:11;103145.38;;;8.45;100.00
47753;BME280;2038;51.728;6.674;2023-02-12T05:56:42;103148.09;;;8.40;100.00
47753;BME280;2038;51.728;6.674;2023-02-12T05:59:16;103158.13;;;8.38;100.00
47753;BME280;2038;51.728;6.674;2023-02-12T06:01:46;103156.31;;;8.37;100.00
47753;BME280;2038;51.728;6.674;2023-02-12T06:04:17;103155.59;;;8.31;100.00
47753;BME280;2038;51.728;6.674;2023-02-12T06:06:45;103151.06;;;8.59;100.00
47753;BME280;2038;51.728;6.674;2023-02-12T06:09:12;103161.34;;;8.67;100.00
47753;BME280;2038;51.728;6.674;2023-02-12T06:11:39;103171.63;;;8.53;100.00
47753;BME280;2038;51.728;6.674;2023-02-12T06:14:07;103162.50;;;8.62;100.00
47753;BME280;2038;51.728;6.674;2023-02-12T06:16:36;103167.19;;;8.66;100.00
47753;BME280;2038;51.728;6.674;2023-02-12T06:19:05;103165.03;;;8.62;100.00
47753;BME280;2038;51.728;6.674;2023-02-12T06:21:32;103161.75;;;8.63;100.00
47753;BME280;2038;51.728;6.674;2023-02-12T06:23:59;103175.22;;;8.62;100.00
47753;BME280;2038;51.728;6.674;2023-02-12T06:26:26;103165.03;;;8.62;100.00
47753;BME280;2038;51.728;6.674;2023-02-12T06:28:52;103166.50;;;8.60;100.00
47753;BME280;2038;51.728;6.674;2023-02-12T06:31:27;103160.69;;;8.61;100.00
47753;BME280;2038;51.728;6.674;2023-02-12T06:33:57;103161.22;;;8.59;100.00
47753;BME280;2038;51.728;6.674;2023-02-12T06:36:25;103173.25;;;8.53;100.00
47753;BME280;2038;51.728;6.674;2023-02-12T06:38:52;103171.13;;;8.49;100.00
47753;BME280;2038;51.728;6.674;2023-02-12T06:41:18;103176.19;;;8.49;100.00
47753;BME280;2038;51.728;6.674;2023-02-12T06:43:45;103172.03;;;8.49;100.00
47753;BME280;2038;51.728;6.674;2023-02-12T06:46:12;103172.16;;;8.51;100.00
47753;BME280;2038;51.728;6.674;2023-02-12T06:48:39;103178.16;;;8.51;100.00
47753;BME280;2038;51.728;6.674;2023-02-12T06:51:11;103175.47;;;8.50;100.00
47753;BME280;2038;51.728;6.674;2023-02-12T06:53:43;103176.88;;;8.55;100.00
47753;BME280;2038;51.728;6.674;2023-02-12T06:56:11;103176.72;;;8.53;100.00
47753;BME280;2038;51.728;6.674;2023-02-12T06:58:43;103176.88;;;8.55;100.00
47753;BME280;2038;51.728;6.674;2023-02-12T07:01:13;103184.09;;;8.59;100.00
47753;BME280;2038;51.728;6.674;2023-02-12T07:03:45;103186.50;;;8.57;100.00
47753;BME280;2038;51.728;6.674;2023-02-12T07:06:14;103181.94;;;8.55;100.00
47753;BME280;2038;51.728;6.674;2023-02-12T07:08:40;103184.50;;;8.55;100.00
47753;BME280;2038;51.728;6.674;2023-02-12T07:11:07;103177.97;;;8.57;100.00
47753;BME280;2038;51.728;6.674;2023-02-12T07:13:33;103178.53;;;8.54;100.00
47753;BME280;2038;51.728;6.674;2023-02-12T07:16:08;103191.56;;;8.57;100.00
47753;BME280;2038;51.728;6.674;2023-02-12T07:18:40;103189.75;;;8.56;100.00
47753;BME280;2038;51.728;6.674;2023-02-12T07:21:07;103194.78;;;8.63;100.00
47753;BME280;2038;51.728;6.674;2023-02-12T07:23:35;103199.34;;;8.59;100.00
47753;BME280;2038;51.728;6.674;2023-02-12T07:26:06;103196.09;;;8.60;100.00
47753;BME280;2038;51.728;6.674;2023-02-12T07:28:34;103198.97;;;8.63;100.00
47753;BME280;2038;51.728;6.674;2023-02-12T07:31:06;103200.97;;;8.65;100.00
47753;BME280;2038;51.728;6.674;2023-02-12T07:33:36;103210.41;;;8.66;100.00
47753;BME280;2038;51.728;6.674;2023-02-12T07:36:05;103208.41;;;8.64;100.00
47753;BME280;2038;51.728;6.674;2023-02-12T07:38:33;103205.81;;;8.71;100.00
47753;BME280;2038;51.728;6.674;2023-02-12T07:41:25;103203.84;;;8.68;100.00
47753;BME280;2038;51.728;6.674;2023-02-12T07:43:55;103213.09;;;8.68;100.00
47753;BME280;2038;51.728;6.674;2023-02-12T07:46:30;103204.94;;;8.70;100.00
47753;BME280;2038;51.728;6.674;2023-02-12T07:49:00;103213.63;;;8.72;100.00
47753;BME280;2038;51.728;6.674;2023-02-12T07:51:30;103217.06;;;8.73;100.00
47753;BME280;2038;51.728;6.674;2023-02-12T07:53:58;103212.72;;;8.72;100.00
47753;BME280;2038;51.728;6.674;2023-02-12T07:56:28;103218.13;;;8.75;100.00
47753;BME280;2038;51.728;6.674;2023-02-12T07:58:58;103219.22;;;8.77;100.00
47753;BME280;2038;51.728;6.674;2023-02-12T08:01:37;103216.47;;;8.82;100.00
47753;BME280;2038;51.728;6.674;2023-02-12T08:04:07;103215.69;;;8.90;100.00
47753;BME280;2038;51.728;6.674;2023-02-12T08:06:37;103222.69;;;9.00;100.00
47753;BME280;2038;51.728;6.674;2023-02-12T08:09:08;103226.84;;;9.00;100.00
47753;BME280;2038;51.728;6.674;2023-02-12T08:11:37;103221.97;;;9.01;100.00
47753;BME280;2038;51.728;6.674;2023-02-12T08:14:05;103216.28;;;9.04;100.00
47753;BME280;2038;51.728;6.674;2023-02-12T08:16:36;103223.94;;;9.04;100.00
47753;BME280;2038;51.728;6.674;2023-02-12T08:19:04;103219.47;;;9.17;100.00
47753;BME280;2038;51.728;6.674;2023-02-12T08:21:31;103228.13;;;9.26;100.00
47753;BME280;2038;51.728;6.674;2023-02-12T08:23:58;103234.13;;;9.26;100.00
47753;BME280;2038;51.728;6.674;2023-02-12T08:26:30;103224.00;;;9.35;100.00
47753;BME280;2038;51.728;6.674;2023-02-12T08:29:05;103231.44;;;9.40;100.00
47753;BME280;2038;51.728;6.674;2023-02-12T08:31:42;103236.75;;;9.35;100.00
47753;BME280;2038;51.728;6.674;2023-02-12T08:34:21;103238.41;;;9.34;100.00
47753;BME280;2038;51.728;6.674;2023-02-12T08:36:52;103241.22;;;9.45;100.00
47753;BME280;2038;51.728;6.674;2023-02-12T08:39:19;103240.19;;;9.35;100.00
47753;BME280;2038;51.728;6.674;2023-02-12T08:41:49;103248.75;;;9.36;100.00
47753;BME280;2038;51.728;6.674;2023-02-12T08:44:17;103251.88;;;9.33;100.00
47753;BME280;2038;51.728;6.674;2023-02-12T08:46:45;103256.44;;;9.29;100.00
47753;BME280;2038;51.728;6.674;2023-02-12T08:49:16;103252.47;;;9.24;100.00
47753;BME280;2038;51.728;6.674;2023-02-12T08:51:46;103255.19;;;9.25;100.00
47753;BME280;2038;51.728;6.674;2023-02-12T08:54:18;103264.41;;;9.09;100.00
47753;BME280;2038;51.728;6.674;2023-02-12T08:56:46;103264.03;;;9.13;100.00
47753;BME280;2038;51.728;6.674;2023-02-12T08:59:14;103272.16;;;9.18;100.00
47753;BME280;2038;51.728;6.674;2023-02-12T09:01:41;103267.09;;;9.18;100.00
47753;BME280;2038;51.728;6.674;2023-02-12T09:04:16;103271.41;;;9.19;100.00
47753;BME280;2038;51.728;6.674;2023-02-12T09:06:46;103277.13;;;9.32;100.00
47753;BME280;2038;51.728;6.674;2023-02-12T09:09:14;103279.34;;;9.29;100.00
47753;BME280;2038;51.728;6.674;2023-02-12T09:11:40;103271.00;;;9.23;100.00
47753;BME280;2038;51.728;6.674;2023-02-12T09:14:11;103268.66;;;9.24;100.00
47753;BME280;2038;51.728;6.674;2023-02-12T09:16:40;103268.47;;;9.23;100.00
47753;BME280;2038;51.728;6.674;2023-02-12T09:19:09;103281.22;;;9.46;100.00
47753;BME280;2038;51.728;6.674;2023-02-12T09:21:37;103276.97;;;9.53;100.00
47753;BME280;2038;51.728;6.674;2023-02-12T09:24:03;103283.25;;;9.41;100.00
47753;BME280;2038;51.728;6.674;2023-02-12T09:26:30;103280.63;;;9.48;100.00
47753;BME280;2038;51.728;6.674;2023-02-12T09:28:56;103269.66;;;9.56;100.00
47753;BME280;2038;51.728;6.674;2023-02-12T09:31:25;103269.50;;;9.55;100.00
47753;BME280;2038;51.728;6.674;2023-02-12T09:33:54;103269.66;;;9.56;100.00
47753;BME280;2038;51.728;6.674;2023-02-12T09:36:24;103267.03;;;9.63;100.00
47753;BME280;2038;51.728;6.674;2023-02-12T09:38:51;103259.75;;;9.66;100.00
47753;BME280;2038;51.728;6.674;2023-02-12T09:50:51;103265.91;;;10.00;100.00
47753;BME280;2038;51.728;6.674;2023-02-12T09:53:24;103267.66;;;10.08;100.00
47753;BME280;2038;51.728;6.674;2023-02-12T09:55:53;103276.38;;;10.10;100.00
47753;BME280;2038;51.728;6.674;2023-02-12T09:58:28;103273.94;;;10.18;100.00
47753;BME280;2038;51.728;6.674;2023-02-12T10:01:03;103274.50;;;10.31;100.00
47753;BME280;2038;51.728;6.674;2023-02-12T10:03:39;103276.06;;;10.38;100.00
47753;BME280;2038;51.728;6.674;2023-02-12T10:06:21;103281.16;;;10.38;100.00
47753;BME280;2038;51.728;6.674;2023-02-12T10:09:01;103278.03;;;10.41;100.00
47753;BME280;2038;51.728;6.674;2023-02-12T10:12:11;103277.53;;;10.36;100.00
47753;BME280;2038;51.728;6.674;2023-02-12T10:15:12;103277.84;;;10.39;100.00
47753;BME280;2038;51.728;6.674;2023-02-12T10:17:47;103279.25;;;10.44;100.00
47753;BME280;2038;51.728;6.674;2023-02-12T10:23:34;103275.38;;;10.48;100.00
47753;BME280;2038;51.728;6.674;2023-02-12T10:26:31;103281.97;;;10.46;100.00
47753;BME280;2038;51.728;6.674;2023-02-12T10:29:22;103286.00;;;10.44;100.00
47753;BME280;2038;51.728;6.674;2023-02-12T10:32:22;103284.44;;;10.53;100.00
47753;BME280;2038;51.728;6.674;2023-02-12T10:34:53;103281.88;;;10.53;100.00
47753;BME280;2038;51.728;6.674;2023-02-12T10:37:52;103290.19;;;10.59;100.00
47753;BME280;2038;51.728;6.674;2023-02-12T10:40:30;103286.31;;;10.62;100.00
47753;BME280;2038;51.728;6.674;2023-02-12T10:43:00;103288.44;;;10.66;100.00
47753;BME280;2038;51.728;6.674;2023-02-12T10:45:31;103286.69;;;10.74;100.00
47753;BME280;2038;51.728;6.674;2023-02-12T10:48:10;103283.00;;;10.79;100.00
47753;BME280;2038;51.728;6.674;2023-02-12T10:53:38;103277.06;;;10.96;100.00
47753;BME280;2038;51.728;6.674;2023-02-12T10:58:42;103273.66;;;11.04;100.00
47753;BME280;2038;51.728;6.674;2023-02-12T11:03:57;103267.97;;;11.31;100.00
47753;BME280;2038;51.728;6.674;2023-02-12T11:06:28;103276.06;;;11.26;100.00
47753;BME280;2038;51.728;6.674;2023-02-12T11:08:56;103273.66;;;11.28;100.00
47753;BME280;2038;51.728;6.674;2023-02-12T11:11:27;103269.56;;;11.21;100.00
47753;BME280;2038;51.728;6.674;2023-02-12T11:16:33;103266.16;;;11.30;100.00
47753;BME280;2038;51.728;6.674;2023-02-12T11:19:05;103265.72;;;11.34;100.00
47753;BME280;2038;51.728;6.674;2023-02-12T11:21:33;103265.28;;;11.38;100.00
47753;BME280;2038;51.728;6.674;2023-02-12T11:24:30;103262.47;;;11.43;99.10
47753;BME280;2038;51.728;6.674;2023-02-12T11:29:43;103254.84;;;11.60;99.29
47753;BME280;2038;51.728;6.674;2023-02-12T11:32:18;103254.09;;;11.61;98.18
47753;BME280;2038;51.728;6.674;2023-02-12T11:35:15;103255.19;;;11.63;98.60
47753;BME280;2038;51.728;6.674;2023-02-12T11:37:54;103252.66;;;11.72;98.12
47753;BME280;2038;51.728;6.674;2023-02-12T11:40:32;103241.31;;;11.61;98.27
47753;BME280;2038;51.728;6.674;2023-02-12T11:43:02;103243.88;;;11.61;98.54
47753;BME280;2038;51.728;6.674;2023-02-12T11:45:47;103243.16;;;11.62;98.86
47753;BME280;2038;51.728;6.674;2023-02-12T11:48:19;103233.22;;;11.65;98.34
47753;BME280;2038;51.728;6.674;2023-02-12T11:50:55;103235.41;;;11.78;97.96
47753;BME280;2038;51.728;6.674;2023-02-12T11:53:28;103239.44;;;11.76;96.88
47753;BME280;2038;51.728;6.674;2023-02-12T11:56:00;103239.72;;;11.70;97.87
47753;BME280;2038;51.728;6.674;2023-02-12T11:58:31;103241.84;;;11.75;96.98
47753;BME280;2038;51.728;6.674;2023-02-12T12:01:26;103229.38;;;11.78;96.90
47753;BME280;2038;51.728;6.674;2023-02-12T12:04:05;103234.22;;;11.83;97.76
47753;BME280;2038;51.728;6.674;2023-02-12T12:10:16;103227.44;;;11.92;96.08
47753;BME280;2038;51.728;6.674;2023-02-12T12:12:52;103226.09;;;11.96;96.10
47753;BME280;2038;51.728;6.674;2023-02-12T12:15:27;103224.63;;;12.15;95.27
47753;BME280;2038;51.728;6.674;2023-02-12T12:18:27;103222.34;;;12.01;95.05
47753;BME280;2038;51.728;6.674;2023-02-12T12:24:37;103218.75;;;11.99;95.25
47753;BME280;2038;51.728;6.674;2023-02-12T12:30:47;103210.00;;;11.97;95.44
47753;BME280;2038;51.728;6.674;2023-02-12T12:51:38;103194.66;;;11.80;95.51
47753;BME280;2038;51.728;6.674;2023-02-12T13:00:54;103183.66;;;11.63;95.55
47753;BME280;2038;51.728;6.674;2023-02-12T13:06:46;103172.63;;;11.56;95.06
47753;BME280;2038;51.728;6.674;2023-02-12T13:09:23;103170.69;;;11.53;95.50
47753;BME280;2038;51.728;6.674;2023-02-12T13:12:07;103171.31;;;11.51;96.53
47753;BME280;2038;51.728;6.674;2023-02-12T13:17:59;103167.44;;;11.71;96.56
47753;BME280;2038;51.728;6.674;2023-02-12T13:20:45;103164.53;;;11.60;96.72
47753;BME280;2038;51.728;6.674;2023-02-12T13:23:34;103152.66;;;11.52;97.07
47753;BME280;2038;51.728;6.674;2023-02-12T13:29:20;103156.44;;;11.64;95.64
47753;BME280;2038;51.728;6.674;2023-02-12T13:31:58;103156.44;;;11.64;95.53
47753;BME280;2038;51.728;6.674;2023-02-12T13:34:31;103150.28;;;11.62;96.49
47753;BME280;2038;51.728;6.674;2023-02-12T13:37:01;103153.28;;;11.66;95.90
47753;BME280;2038;51.728;6.674;2023-02-12T13:39:39;103153.28;;;11.66;96.02
47753;BME280;2038;51.728;6.674;2023-02-12T13:45:26;103157.69;;;11.76;96.16
47753;BME280;2038;51.728;6.674;2023-02-12T13:51:28;103151.03;;;11.69;96.09
47753;BME280;2038;51.728;6.674;2023-02-12T13:57:00;103150.88;;;11.68;96.39
47753;BME280;2038;51.728;6.674;2023-02-12T14:05:19;103153.75;;;11.71;96.05
47753;BME280;2038;51.728;6.674;2023-02-12T14:07:54;103151.94;;;11.70;96.05
47753;BME280;2038;51.728;6.674;2023-02-12T14:13:14;103157.53;;;12.00;94.74
47753;BME280;2038;51.728;6.674;2023-02-12T14:15:47;103163.09;;;11.96;94.18
47753;BME280;2038;51.728;6.674;2023-02-12T14:18:36;103164.47;;;12.01;95.12
47753;BME280;2038;51.728;6.674;2023-02-12T14:23:46;103153.66;;;11.87;95.17
47753;BME280;2038;51.728;6.674;2023-02-12T14:26:19;103154.22;;;11.84;95.86
47753;BME280;2038;51.728;6.674;2023-02-12T14:29:01;103150.00;;;11.76;95.65
47753;BME280;2038;51.728;6.674;2023-02-12T14:31:33;103153.19;;;11.73;94.95
47753;BME280;2038;51.728;6.674;2023-02-12T14:36:44;103151.94;;;11.70;95.21
47753;BME280;2038;51.728;6.674;2023-02-12T14:44:45;103149.03;;;11.41;96.46
47753;BME280;2038;51.728;6.674;2023-02-12T14:47:47;103141.22;;;11.31;97.48
47753;BME280;2038;51.728;6.674;2023-02-12T14:50:09;103154.41;;;11.27;97.70
47753;BME280;2038;51.728;6.674;2023-02-12T14:52:46;103145.25;;;11.29;97.36
47753;BME280;2038;51.728;6.674;2023-02-12T14:55:27;103141.22;;;11.31;97.33
47753;BME280;2038;51.728;6.674;2023-02-12T14:58:04;103149.00;;;11.33;96.55
47753;BME280;2038;51.728;6.674;2023-02-12T15:00:41;103141.66;;;11.27;97.14
47753;BME280;2038;51.728;6.674;2023-02-12T15:05:42;103131.56;;;11.20;97.35
47753;BME280;2038;51.728;6.674;2023-02-12T15:11:26;103132.94;;;11.25;97.51
47753;BME280;2038;51.728;6.674;2023-02-12T15:17:08;103134.44;;;11.23;96.95
47753;BME280;2038;51.728;6.674;2023-02-12T15:20:01;103133.09;;;11.44;97.02
47753;BME280;2038;51.728;6.674;2023-02-12T15:22:39;103126.38;;;11.53;95.98
47753;BME280;2038;51.728;6.674;2023-02-12T15:25:28;103128.63;;;11.50;95.63
47753;BME280;2038;51.728;6.674;2023-02-12T15:28:19;103127.28;;;11.53;96.31
47753;BME280;2038;51.728;6.674;2023-02-12T15:30:50;103128.91;;;11.53;96.05
47753;BME280;2038;51.728;6.674;2023-02-12T15:33:26;103130.28;;;11.49;96.26
47753;BME280;2038;51.728;6.674;2023-02-12T15:35:55;103128.91;;;11.53;96.36
47753;BME280;2038;51.728;6.674;2023-02-12T15:38:30;103129.38;;;11.49;97.04
47753;BME280;2038;51.728;6.674;2023-02-12T15:41:01;103122.59;;;11.49;96.95
47753;BME280;2038;51.728;6.674;2023-02-12T15:43:30;103121.13;;;11.51;96.26
47753;BME280;2038;51.728;6.674;2023-02-12T15:46:04;103123.22;;;11.47;96.52
47753;BME280;2038;51.728;6.674;2023-02-12T15:48:36;103115.66;;;11.40;97.04
47753;BME280;2038;51.728;6.674;2023-02-12T15:54:00;103115.97;;;11.34;98.44
47753;BME280;2038;51.728;6.674;2023-02-12T15:56:31;103116.44;;;11.30;98.11
47753;BME280;2038;51.728;6.674;2023-02-12T15:58:59;103113.72;;;11.28;98.27
47753;BME280;2038;51.728;6.674;2023-02-12T16:01:30;103108.75;;;11.21;99.19
47753;BME280;2038;51.728;6.674;2023-02-12T16:04:04;103112.66;;;11.18;99.00
47753;BME280;2038;51.728;6.674;2023-02-12T16:06:33;103114.47;;;11.19;99.52
47753;BME280;2038;51.728;6.674;2023-02-12T16:11:44;103111.09;;;11.11;99.67
47753;BME280;2038;51.728;6.674;2023-02-12T16:14:22;103110.06;;;11.09;99.40
47753;BME280;2038;51.728;6.674;2023-02-12T16:16:54;103101.50;;;11.09;100.00
47753;BME280;2038;51.728;6.674;2023-02-12T16:19:25;103099.56;;;11.06;99.95